Aviation Digital Data Service (ADDS)

Output produced by METARs form (0156 UTC 25 February 2018)
found at http://aviationweather.gov/adds/metars/
 
KPNE 242336Z 2500/2524 04004KT P6SM VCSH SCT015 OVC050 
     TEMPO 2500/2503 BKN015 OVC035 
     FM250300 08006KT 6SM BR OVC015 
     FM250700 08007KT 5SM -RA BR OVC010 
     FM250900 08008KT 2SM -RA BR OVC005 
     FM251900 VRB02KT 5SM -RA BR OVC010 
     FM252000 VRB02KT P6SM OVC015 
     FM252200 VRB03KT P6SM BKN035